sensor_id;sensor_type;location;lat;lon;timestamp;temperature;humidity
57566;DHT22;63999;43.882;-0.310;2023-06-22T00:00:49;21.80;90.90
57566;DHT22;63999;43.882;-0.310;2023-06-22T00:03:17;21.80;91.00
57566;DHT22;63999;43.882;-0.310;2023-06-22T00:05:42;21.80;90.80
57566;DHT22;63999;43.882;-0.310;2023-06-22T00:08:08;21.80;91.00
57566;DHT22;63999;43.882;-0.310;2023-06-22T00:10:34;21.80;91.00
57566;DHT22;63999;43.882;-0.310;2023-06-22T00:13:00;21.70;90.90
57566;DHT22;63999;43.882;-0.310;2023-06-22T00:15:26;21.70;91.10
57566;DHT22;63999;43.882;-0.310;2023-06-22T00:17:52;21.70;90.80
57566;DHT22;63999;43.882;-0.310;2023-06-22T00:20:18;21.70;91.00
57566;DHT22;63999;43.882;-0.310;2023-06-22T00:22:46;21.70;91.00
57566;DHT22;63999;43.882;-0.310;2023-06-22T00:25:13;21.70;91.10
57566;DHT22;63999;43.882;-0.310;2023-06-22T00:27:39;21.70;91.20
57566;DHT22;63999;43.882;-0.310;2023-06-22T00:30:05;21.70;90.90
57566;DHT22;63999;43.882;-0.310;2023-06-22T00:32:31;21.70;90.90
57566;DHT22;63999;43.882;-0.310;2023-06-22T00:34:57;21.70;90.80
57566;DHT22;63999;43.882;-0.310;2023-06-22T00:37:22;21.70;90.80
57566;DHT22;63999;43.882;-0.310;2023-06-22T00:39:51;21.70;90.90
57566;DHT22;63999;43.882;-0.310;2023-06-22T00:42:17;21.70;90.60
57566;DHT22;63999;43.882;-0.310;2023-06-22T00:44:43;21.70;91.10
57566;DHT22;63999;43.882;-0.310;2023-06-22T00:47:11;21.70;90.80
57566;DHT22;63999;43.882;-0.310;2023-06-22T00:49:39;21.70;90.90
57566;DHT22;63999;43.882;-0.310;2023-06-22T00:52:06;21.70;90.80
57566;DHT22;63999;43.882;-0.310;2023-06-22T00:54:42;21.70;90.70
57566;DHT22;63999;43.882;-0.310;2023-06-22T00:57:13;21.70;90.70
57566;DHT22;63999;43.882;-0.310;2023-06-22T00:59:45;21.70;90.80
57566;DHT22;63999;43.882;-0.310;2023-06-22T01:02:11;21.60;90.80
57566;DHT22;63999;43.882;-0.310;2023-06-22T01:04:39;21.60;90.90
57566;DHT22;63999;43.882;-0.310;2023-06-22T01:07:35;21.60;90.70
57566;DHT22;63999;43.882;-0.310;2023-06-22T01:12:42;21.60;90.70
57566;DHT22;63999;43.882;-0.310;2023-06-22T01:15:17;21.60;90.80
57566;DHT22;63999;43.882;-0.310;2023-06-22T01:17:45;21.60;90.70
57566;DHT22;63999;43.882;-0.310;2023-06-22T01:20:15;21.50;90.70
57566;DHT22;63999;43.882;-0.310;2023-06-22T01:23:05;21.50;90.60
57566;DHT22;63999;43.882;-0.310;2023-06-22T01:31:01;21.50;90.80
57566;DHT22;63999;43.882;-0.310;2023-06-22T01:33:33;21.60;90.80
57566;DHT22;63999;43.882;-0.310;2023-06-22T01:36:01;21.50;90.60
57566;DHT22;63999;43.882;-0.310;2023-06-22T01:38:29;21.50;90.70
57566;DHT22;63999;43.882;-0.310;2023-06-22T01:40:56;21.50;90.70
57566;DHT22;63999;43.882;-0.310;2023-06-22T01:43:25;21.50;90.70
57566;DHT22;63999;43.882;-0.310;2023-06-22T01:45:52;21.50;90.80
57566;DHT22;63999;43.882;-0.310;2023-06-22T01:48:19;21.50;90.80
57566;DHT22;63999;43.882;-0.310;2023-06-22T01:50:45;21.50;90.80
57566;DHT22;63999;43.882;-0.310;2023-06-22T01:53:12;21.50;90.70
57566;DHT22;63999;43.882;-0.310;2023-06-22T01:55:37;21.50;90.80
57566;DHT22;63999;43.882;-0.310;2023-06-22T01:58:03;21.50;90.70
57566;DHT22;63999;43.882;-0.310;2023-06-22T02:00:33;21.50;90.70
57566;DHT22;63999;43.882;-0.310;2023-06-22T02:03:05;21.50;90.90
57566;DHT22;63999;43.882;-0.310;2023-06-22T02:05:46;21.50;90.80
57566;DHT22;63999;43.882;-0.310;2023-06-22T02:08:25;21.50;90.70
57566;DHT22;63999;43.882;-0.310;2023-06-22T02:10:54;21.50;90.70
57566;DHT22;63999;43.882;-0.310;2023-06-22T02:13:23;21.50;90.80
57566;DHT22;63999;43.882;-0.310;2023-06-22T02:15:49;21.50;90.70
57566;DHT22;63999;43.882;-0.310;2023-06-22T02:18:15;21.40;90.80
57566;DHT22;63999;43.882;-0.310;2023-06-22T02:20:41;21.40;90.80
57566;DHT22;63999;43.882;-0.310;2023-06-22T02:23:07;21.40;90.80
57566;DHT22;63999;43.882;-0.310;2023-06-22T02:25:35;21.40;90.80
57566;DHT22;63999;43.882;-0.310;2023-06-22T02:28:01;21.40;90.70
57566;DHT22;63999;43.882;-0.310;2023-06-22T02:30:27;21.40;90.80
57566;DHT22;63999;43.882;-0.310;2023-06-22T02:32:53;21.40;90.70
57566;DHT22;63999;43.882;-0.310;2023-06-22T02:35:28;21.40;90.80
57566;DHT22;63999;43.882;-0.310;2023-06-22T02:37:58;21.40;90.80
57566;DHT22;63999;43.882;-0.310;2023-06-22T02:40:24;21.40;90.60
57566;DHT22;63999;43.882;-0.310;2023-06-22T02:42:50;21.40;90.50
57566;DHT22;63999;43.882;-0.310;2023-06-22T02:45:16;21.40;90.60
57566;DHT22;63999;43.882;-0.310;2023-06-22T02:47:42;21.40;90.60
57566;DHT22;63999;43.882;-0.310;2023-06-22T02:50:08;21.40;90.50
57566;DHT22;63999;43.882;-0.310;2023-06-22T02:52:34;21.40;90.40
57566;DHT22;63999;43.882;-0.310;2023-06-22T02:54:59;21.40;90.40
57566;DHT22;63999;43.882;-0.310;2023-06-22T02:57:25;21.40;90.40
57566;DHT22;63999;43.882;-0.310;2023-06-22T02:59:51;21.40;90.40
57566;DHT22;63999;43.882;-0.310;2023-06-22T03:02:17;21.40;90.60
57566;DHT22;63999;43.882;-0.310;2023-06-22T03:04:43;21.40;90.50
57566;DHT22;63999;43.882;-0.310;2023-06-22T03:07:08;21.40;90.30
57566;DHT22;63999;43.882;-0.310;2023-06-22T03:09:34;21.40;90.50
57566;DHT22;63999;43.882;-0.310;2023-06-22T03:12:00;21.30;90.50
57566;DHT22;63999;43.882;-0.310;2023-06-22T03:14:27;21.30;90.50
57566;DHT22;63999;43.882;-0.310;2023-06-22T03:16:53;21.30;90.40
57566;DHT22;63999;43.882;-0.310;2023-06-22T03:19:19;21.30;90.60
57566;DHT22;63999;43.882;-0.310;2023-06-22T03:21:46;21.30;90.40
57566;DHT22;63999;43.882;-0.310;2023-06-22T03:24:12;21.30;90.50
57566;DHT22;63999;43.882;-0.310;2023-06-22T03:26:38;21.30;90.30
57566;DHT22;63999;43.882;-0.310;2023-06-22T03:29:04;21.30;90.60
57566;DHT22;63999;43.882;-0.310;2023-06-22T03:31:29;21.30;90.40
57566;DHT22;63999;43.882;-0.310;2023-06-22T03:33:55;21.30;90.50
57566;DHT22;63999;43.882;-0.310;2023-06-22T03:36:21;21.20;90.60
57566;DHT22;63999;43.882;-0.310;2023-06-22T03:38:49;21.30;90.50
57566;DHT22;63999;43.882;-0.310;2023-06-22T03:41:15;21.20;90.60
57566;DHT22;63999;43.882;-0.310;2023-06-22T03:43:41;21.20;90.40
57566;DHT22;63999;43.882;-0.310;2023-06-22T03:46:07;21.20;90.40
57566;DHT22;63999;43.882;-0.310;2023-06-22T03:48:33;21.10;90.40
57566;DHT22;63999;43.882;-0.310;2023-06-22T03:51:01;21.20;90.40
57566;DHT22;63999;43.882;-0.310;2023-06-22T03:53:28;21.10;90.40
57566;DHT22;63999;43.882;-0.310;2023-06-22T03:55:54;21.10;90.60
57566;DHT22;63999;43.882;-0.310;2023-06-22T03:58:21;21.10;90.40
57566;DHT22;63999;43.882;-0.310;2023-06-22T04:00:47;21.10;90.40
57566;DHT22;63999;43.882;-0.310;2023-06-22T04:03:14;21.10;90.40
57566;DHT22;63999;43.882;-0.310;2023-06-22T04:05:40;21.10;90.50
57566;DHT22;63999;43.882;-0.310;2023-06-22T04:08:07;21.10;90.40
57566;DHT22;63999;43.882;-0.310;2023-06-22T04:10:33;21.10;90.40
57566;DHT22;63999;43.882;-0.310;2023-06-22T04:12:59;21.10;90.40
57566;DHT22;63999;43.882;-0.310;2023-06-22T04:15:24;21.10;90.40
57566;DHT22;63999;43.882;-0.310;2023-06-22T04:17:50;21.10;90.30
57566;DHT22;63999;43.882;-0.310;2023-06-22T04:20:16;21.10;90.40
57566;DHT22;63999;43.882;-0.310;2023-06-22T04:22:42;21.10;90.30
57566;DHT22;63999;43.882;-0.310;2023-06-22T04:25:08;21.10;90.20
57566;DHT22;63999;43.882;-0.310;2023-06-22T04:27:34;21.10;90.10
57566;DHT22;63999;43.882;-0.310;2023-06-22T04:30:06;21.10;90.20
57566;DHT22;63999;43.882;-0.310;2023-06-22T04:32:33;21.00;90.20
57566;DHT22;63999;43.882;-0.310;2023-06-22T04:34:58;21.10;90.10
57566;DHT22;63999;43.882;-0.310;2023-06-22T04:37:26;21.00;90.30
57566;DHT22;63999;43.882;-0.310;2023-06-22T04:39:52;21.00;90.20
57566;DHT22;63999;43.882;-0.310;2023-06-22T04:42:18;21.00;90.10
57566;DHT22;63999;43.882;-0.310;2023-06-22T04:44:44;21.00;90.10
57566;DHT22;63999;43.882;-0.310;2023-06-22T04:47:09;21.00;90.30
57566;DHT22;63999;43.882;-0.310;2023-06-22T04:49:36;21.00;90.10
57566;DHT22;63999;43.882;-0.310;2023-06-22T04:52:03;21.00;90.00
57566;DHT22;63999;43.882;-0.310;2023-06-22T04:54:29;21.00;90.10
57566;DHT22;63999;43.882;-0.310;2023-06-22T04:56:59;21.00;90.10
57566;DHT22;63999;43.882;-0.310;2023-06-22T04:59:28;20.90;90.10
57566;DHT22;63999;43.882;-0.310;2023-06-22T05:01:56;21.00;90.00
57566;DHT22;63999;43.882;-0.310;2023-06-22T05:04:23;21.00;90.00
57566;DHT22;63999;43.882;-0.310;2023-06-22T05:06:49;20.90;90.00
57566;DHT22;63999;43.882;-0.310;2023-06-22T05:09:15;20.90;90.00
57566;DHT22;63999;43.882;-0.310;2023-06-22T05:11:43;20.90;90.00
57566;DHT22;63999;43.882;-0.310;2023-06-22T05:14:08;20.90;90.00
57566;DHT22;63999;43.882;-0.310;2023-06-22T05:16:34;20.90;90.00
57566;DHT22;63999;43.882;-0.310;2023-06-22T05:19:00;20.90;90.00
57566;DHT22;63999;43.882;-0.310;2023-06-22T05:21:28;20.90;90.00
57566;DHT22;63999;43.882;-0.310;2023-06-22T05:23:54;20.80;89.90
57566;DHT22;63999;43.882;-0.310;2023-06-22T05:26:21;20.80;90.00
57566;DHT22;63999;43.882;-0.310;2023-06-22T05:28:47;20.90;90.00
57566;DHT22;63999;43.882;-0.310;2023-06-22T05:31:14;20.80;89.90
57566;DHT22;63999;43.882;-0.310;2023-06-22T05:33:40;20.80;89.80
57566;DHT22;63999;43.882;-0.310;2023-06-22T05:36:06;20.80;89.90
57566;DHT22;63999;43.882;-0.310;2023-06-22T05:38:32;20.80;89.80
57566;DHT22;63999;43.882;-0.310;2023-06-22T05:40:58;20.80;90.00
57566;DHT22;63999;43.882;-0.310;2023-06-22T05:43:24;20.90;90.20
57566;DHT22;63999;43.882;-0.310;2023-06-22T05:45:50;20.90;90.00
57566;DHT22;63999;43.882;-0.310;2023-06-22T05:48:15;20.90;89.90
57566;DHT22;63999;43.882;-0.310;2023-06-22T05:50:42;20.90;90.30
57566;DHT22;63999;43.882;-0.310;2023-06-22T05:53:07;20.80;89.80
57566;DHT22;63999;43.882;-0.310;2023-06-22T05:55:33;20.90;89.70
57566;DHT22;63999;43.882;-0.310;2023-06-22T05:57:59;20.90;90.20
57566;DHT22;63999;43.882;-0.310;2023-06-22T06:00:25;20.90;90.00
57566;DHT22;63999;43.882;-0.310;2023-06-22T06:02:50;20.90;89.90
57566;DHT22;63999;43.882;-0.310;2023-06-22T06:05:16;20.90;89.90
57566;DHT22;63999;43.882;-0.310;2023-06-22T06:07:43;20.90;90.10
57566;DHT22;63999;43.882;-0.310;2023-06-22T06:10:09;20.90;90.10
57566;DHT22;63999;43.882;-0.310;2023-06-22T06:12:35;20.90;89.90
57566;DHT22;63999;43.882;-0.310;2023-06-22T06:15:02;20.90;90.30
57566;DHT22;63999;43.882;-0.310;2023-06-22T06:17:28;20.90;89.80
57566;DHT22;63999;43.882;-0.310;2023-06-22T06:19:53;20.90;90.30
57566;DHT22;63999;43.882;-0.310;2023-06-22T06:22:19;20.90;90.20
57566;DHT22;63999;43.882;-0.310;2023-06-22T06:24:47;20.90;90.20
57566;DHT22;63999;43.882;-0.310;2023-06-22T06:27:13;20.90;90.20
57566;DHT22;63999;43.882;-0.310;2023-06-22T06:29:39;20.90;90.20
57566;DHT22;63999;43.882;-0.310;2023-06-22T06:32:05;20.90;90.50
57566;DHT22;63999;43.882;-0.310;2023-06-22T06:34:31;20.90;90.10
57566;DHT22;63999;43.882;-0.310;2023-06-22T06:36:57;20.90;90.20
57566;DHT22;63999;43.882;-0.310;2023-06-22T06:39:23;20.90;90.20
57566;DHT22;63999;43.882;-0.310;2023-06-22T06:41:49;20.90;90.00
57566;DHT22;63999;43.882;-0.310;2023-06-22T06:44:14;20.90;89.90
57566;DHT22;63999;43.882;-0.310;2023-06-22T06:46:40;20.80;90.10
57566;DHT22;63999;43.882;-0.310;2023-06-22T06:49:07;20.80;90.10
57566;DHT22;63999;43.882;-0.310;2023-06-22T06:51:33;20.80;90.00
57566;DHT22;63999;43.882;-0.310;2023-06-22T06:53:59;20.80;90.00
57566;DHT22;63999;43.882;-0.310;2023-06-22T06:56:24;20.90;90.00
57566;DHT22;63999;43.882;-0.310;2023-06-22T06:58:51;20.80;90.10
57566;DHT22;63999;43.882;-0.310;2023-06-22T07:01:17;20.80;89.90
57566;DHT22;63999;43.882;-0.310;2023-06-22T07:03:43;20.80;90.10
57566;DHT22;63999;43.882;-0.310;2023-06-22T07:06:09;20.80;90.10
57566;DHT22;63999;43.882;-0.310;2023-06-22T07:08:35;20.80;90.10
57566;DHT22;63999;43.882;-0.310;2023-06-22T07:11:02;20.90;90.10
57566;DHT22;63999;43.882;-0.310;2023-06-22T07:13:28;20.90;90.10
57566;DHT22;63999;43.882;-0.310;2023-06-22T07:15:54;20.90;90.10
57566;DHT22;63999;43.882;-0.310;2023-06-22T07:18:20;20.90;90.00
57566;DHT22;63999;43.882;-0.310;2023-06-22T07:20:45;20.90;89.90
57566;DHT22;63999;43.882;-0.310;2023-06-22T07:23:11;20.90;90.10
57566;DHT22;63999;43.882;-0.310;2023-06-22T07:25:37;20.80;89.90
57566;DHT22;63999;43.882;-0.310;2023-06-22T07:28:05;20.90;90.00
57566;DHT22;63999;43.882;-0.310;2023-06-22T07:30:32;20.90;90.10
57566;DHT22;63999;43.882;-0.310;2023-06-22T07:32:59;20.90;90.20
57566;DHT22;63999;43.882;-0.310;2023-06-22T07:35:29;20.90;90.00
57566;DHT22;63999;43.882;-0.310;2023-06-22T07:37:55;20.90;90.30
57566;DHT22;63999;43.882;-0.310;2023-06-22T07:40:21;20.90;90.30
57566;DHT22;63999;43.882;-0.310;2023-06-22T07:42:47;21.00;90.40
57566;DHT22;63999;43.882;-0.310;2023-06-22T07:45:14;21.00;90.40
57566;DHT22;63999;43.882;-0.310;2023-06-22T07:47:40;21.00;90.70
57566;DHT22;63999;43.882;-0.310;2023-06-22T07:50:06;21.00;90.40
57566;DHT22;63999;43.882;-0.310;2023-06-22T07:52:32;21.00;90.60
57566;DHT22;63999;43.882;-0.310;2023-06-22T07:54:58;21.00;90.40
57566;DHT22;63999;43.882;-0.310;2023-06-22T07:57:24;21.00;90.50
57566;DHT22;63999;43.882;-0.310;2023-06-22T07:59:57;21.00;90.80
57566;DHT22;63999;43.882;-0.310;2023-06-22T08:02:24;21.00;91.20
57566;DHT22;63999;43.882;-0.310;2023-06-22T08:04:50;21.10;90.60
57566;DHT22;63999;43.882;-0.310;2023-06-22T08:07:15;21.10;90.50
57566;DHT22;63999;43.882;-0.310;2023-06-22T08:09:46;21.10;90.50
57566;DHT22;63999;43.882;-0.310;2023-06-22T08:12:12;21.10;90.40
57566;DHT22;63999;43.882;-0.310;2023-06-22T08:14:38;21.10;90.40
57566;DHT22;63999;43.882;-0.310;2023-06-22T08:17:04;21.10;90.50
57566;DHT22;63999;43.882;-0.310;2023-06-22T08:19:31;21.10;90.60
57566;DHT22;63999;43.882;-0.310;2023-06-22T08:21:56;21.10;90.60
57566;DHT22;63999;43.882;-0.310;2023-06-22T08:24:23;21.10;90.60
57566;DHT22;63999;43.882;-0.310;2023-06-22T08:26:51;21.10;90.80
57566;DHT22;63999;43.882;-0.310;2023-06-22T08:29:17;21.10;90.60
57566;DHT22;63999;43.882;-0.310;2023-06-22T08:31:43;21.10;90.50
57566;DHT22;63999;43.882;-0.310;2023-06-22T08:34:09;21.10;90.70
57566;DHT22;63999;43.882;-0.310;2023-06-22T08:36:34;21.10;90.60
57566;DHT22;63999;43.882;-0.310;2023-06-22T08:39:03;21.10;90.50
57566;DHT22;63999;43.882;-0.310;2023-06-22T08:41:29;21.10;90.60
57566;DHT22;63999;43.882;-0.310;2023-06-22T08:43:55;21.10;90.90
57566;DHT22;63999;43.882;-0.310;2023-06-22T08:46:21;21.10;90.90
57566;DHT22;63999;43.882;-0.310;2023-06-22T08:48:49;21.10;90.80
57566;DHT22;63999;43.882;-0.310;2023-06-22T08:51:16;21.10;90.70
57566;DHT22;63999;43.882;-0.310;2023-06-22T08:53:42;21.10;90.70
57566;DHT22;63999;43.882;-0.310;2023-06-22T08:56:08;21.20;90.80
57566;DHT22;63999;43.882;-0.310;2023-06-22T08:58:34;21.20;90.60
57566;DHT22;63999;43.882;-0.310;2023-06-22T09:00:59;21.10;90.60
57566;DHT22;63999;43.882;-0.310;2023-06-22T09:03:26;21.10;90.80
57566;DHT22;63999;43.882;-0.310;2023-06-22T09:05:52;21.10;91.00
57566;DHT22;63999;43.882;-0.310;2023-06-22T09:08:18;21.10;90.70
57566;DHT22;63999;43.882;-0.310;2023-06-22T09:10:44;21.10;90.60
57566;DHT22;63999;43.882;-0.310;2023-06-22T09:13:09;21.20;90.80
57566;DHT22;63999;43.882;-0.310;2023-06-22T09:15:35;21.10;90.70
57566;DHT22;63999;43.882;-0.310;2023-06-22T09:18:01;21.20;90.80
57566;DHT22;63999;43.882;-0.310;2023-06-22T09:20:27;21.20;90.70
57566;DHT22;63999;43.882;-0.310;2023-06-22T09:22:52;21.20;90.80
57566;DHT22;63999;43.882;-0.310;2023-06-22T09:25:18;21.20;90.70
57566;DHT22;63999;43.882;-0.310;2023-06-22T09:27:46;21.20;91.10
57566;DHT22;63999;43.882;-0.310;2023-06-22T09:30:12;21.20;91.50
57566;DHT22;63999;43.882;-0.310;2023-06-22T09:32:38;21.30;91.10
57566;DHT22;63999;43.882;-0.310;2023-06-22T09:35:05;21.30;90.70
57566;DHT22;63999;43.882;-0.310;2023-06-22T09:37:35;21.30;90.90
57566;DHT22;63999;43.882;-0.310;2023-06-22T09:40:01;21.30;91.00
57566;DHT22;63999;43.882;-0.310;2023-06-22T09:42:30;21.30;91.50
57566;DHT22;63999;43.882;-0.310;2023-06-22T09:44:55;21.30;92.10
57566;DHT22;63999;43.882;-0.310;2023-06-22T09:47:21;21.30;90.90
57566;DHT22;63999;43.882;-0.310;2023-06-22T09:49:47;21.30;91.10
57566;DHT22;63999;43.882;-0.310;2023-06-22T09:52:12;21.30;91.20
57566;DHT22;63999;43.882;-0.310;2023-06-22T09:54:38;21.40;91.50
57566;DHT22;63999;43.882;-0.310;2023-06-22T09:57:04;21.40;91.00
57566;DHT22;63999;43.882;-0.310;2023-06-22T09:59:30;21.40;91.60
57566;DHT22;63999;43.882;-0.310;2023-06-22T10:01:56;21.40;91.10
57566;DHT22;63999;43.882;-0.310;2023-06-22T10:04:21;21.30;91.10
57566;DHT22;63999;43.882;-0.310;2023-06-22T10:06:47;21.30;91.00
57566;DHT22;63999;43.882;-0.310;2023-06-22T10:09:13;21.40;91.20
57566;DHT22;63999;43.882;-0.310;2023-06-22T10:11:38;21.40;91.00
57566;DHT22;63999;43.882;-0.310;2023-06-22T10:14:04;21.40;91.90
57566;DHT22;63999;43.882;-0.310;2023-06-22T10:16:31;21.40;91.20
57566;DHT22;63999;43.882;-0.310;2023-06-22T10:18:57;21.40;91.20
57566;DHT22;63999;43.882;-0.310;2023-06-22T10:21:23;21.40;92.20
57566;DHT22;63999;43.882;-0.310;2023-06-22T10:23:48;21.40;91.70
57566;DHT22;63999;43.882;-0.310;2023-06-22T10:26:14;21.40;91.40
57566;DHT22;63999;43.882;-0.310;2023-06-22T10:28:40;21.40;91.40
57566;DHT22;63999;43.882;-0.310;2023-06-22T10:31:05;21.40;91.70
57566;DHT22;63999;43.882;-0.310;2023-06-22T10:33:31;21.50;91.70
57566;DHT22;63999;43.882;-0.310;2023-06-22T10:35:57;21.50;91.50
57566;DHT22;63999;43.882;-0.310;2023-06-22T10:38:22;21.50;91.20
57566;DHT22;63999;43.882;-0.310;2023-06-22T10:40:48;21.50;91.40
57566;DHT22;63999;43.882;-0.310;2023-06-22T10:43:14;21.50;91.40
57566;DHT22;63999;43.882;-0.310;2023-06-22T10:45:39;21.50;91.50
57566;DHT22;63999;43.882;-0.310;2023-06-22T10:48:05;21.50;91.70
57566;DHT22;63999;43.882;-0.310;2023-06-22T10:50:31;21.50;92.50
57566;DHT22;63999;43.882;-0.310;2023-06-22T10:52:57;21.60;91.60
57566;DHT22;63999;43.882;-0.310;2023-06-22T10:55:23;21.60;92.00
57566;DHT22;63999;43.882;-0.310;2023-06-22T10:57:48;21.50;91.30
57566;DHT22;63999;43.882;-0.310;2023-06-22T11:00:16;21.60;92.20
57566;DHT22;63999;43.882;-0.310;2023-06-22T11:02:42;21.70;92.50
57566;DHT22;63999;43.882;-0.310;2023-06-22T11:05:08;21.70;91.20
57566;DHT22;63999;43.882;-0.310;2023-06-22T11:07:33;21.70;91.40
57566;DHT22;63999;43.882;-0.310;2023-06-22T11:09:59;21.70;92.10
57566;DHT22;63999;43.882;-0.310;2023-06-22T11:12:25;21.70;91.30
57566;DHT22;63999;43.882;-0.310;2023-06-22T11:14:51;21.70;93.60
57566;DHT22;63999;43.882;-0.310;2023-06-22T11:17:17;21.80;92.20
57566;DHT22;63999;43.882;-0.310;2023-06-22T11:19:44;21.70;91.20
57566;DHT22;63999;43.882;-0.310;2023-06-22T11:22:10;21.70;92.10
57566;DHT22;63999;43.882;-0.310;2023-06-22T11:24:36;21.70;91.60
57566;DHT22;63999;43.882;-0.310;2023-06-22T11:27:01;21.70;91.50
57566;DHT22;63999;43.882;-0.310;2023-06-22T11:29:27;21.70;92.60
57566;DHT22;63999;43.882;-0.310;2023-06-22T11:31:53;21.70;93.40
57566;DHT22;63999;43.882;-0.310;2023-06-22T11:34:19;21.70;91.50
57566;DHT22;63999;43.882;-0.310;2023-06-22T11:36:44;21.90;92.00
57566;DHT22;63999;43.882;-0.310;2023-06-22T11:39:10;21.90;91.20
57566;DHT22;63999;43.882;-0.310;2023-06-22T11:41:37;21.90;92.50
57566;DHT22;63999;43.882;-0.310;2023-06-22T11:44:03;21.90;91.50
57566;DHT22;63999;43.882;-0.310;2023-06-22T11:46:30;21.90;92.20
57566;DHT22;63999;43.882;-0.310;2023-06-22T11:48:57;21.90;91.40
57566;DHT22;63999;43.882;-0.310;2023-06-22T11:51:23;21.90;93.10
57566;DHT22;63999;43.882;-0.310;2023-06-22T11:53:48;21.90;92.20
57566;DHT22;63999;43.882;-0.310;2023-06-22T11:56:14;21.90;91.50
57566;DHT22;63999;43.882;-0.310;2023-06-22T11:58:40;21.90;92.40
57566;DHT22;63999;43.882;-0.310;2023-06-22T12:01:05;21.90;91.80
57566;DHT22;63999;43.882;-0.310;2023-06-22T12:03:31;21.90;91.60
57566;DHT22;63999;43.882;-0.310;2023-06-22T12:05:57;21.90;92.60
57566;DHT22;63999;43.882;-0.310;2023-06-22T12:08:23;21.90;92.50
57566;DHT22;63999;43.882;-0.310;2023-06-22T12:10:49;21.90;91.80
57566;DHT22;63999;43.882;-0.310;2023-06-22T12:13:15;21.90;94.70
57566;DHT22;63999;43.882;-0.310;2023-06-22T12:15:41;22.00;91.60
57566;DHT22;63999;43.882;-0.310;2023-06-22T12:18:07;22.00;93.40
57566;DHT22;63999;43.882;-0.310;2023-06-22T12:20:34;22.10;92.30
57566;DHT22;63999;43.882;-0.310;2023-06-22T12:22:59;22.10;92.00
57566;DHT22;63999;43.882;-0.310;2023-06-22T12:25:25;22.10;91.80
57566;DHT22;63999;43.882;-0.310;2023-06-22T12:27:51;22.10;91.80
57566;DHT22;63999;43.882;-0.310;2023-06-22T12:30:17;22.10;92.10
57566;DHT22;63999;43.882;-0.310;2023-06-22T12:32:45;22.20;93.10
57566;DHT22;63999;43.882;-0.310;2023-06-22T12:35:11;22.20;92.10
57566;DHT22;63999;43.882;-0.310;2023-06-22T12:37:42;22.20;93.30
57566;DHT22;63999;43.882;-0.310;2023-06-22T12:40:09;22.20;93.20
57566;DHT22;63999;43.882;-0.310;2023-06-22T12:42:34;22.30;91.40
57566;DHT22;63999;43.882;-0.310;2023-06-22T12:45:00;22.20;91.50
57566;DHT22;63999;43.882;-0.310;2023-06-22T12:47:26;22.20;91.90
57566;DHT22;63999;43.882;-0.310;2023-06-22T12:49:52;22.20;91.80
57566;DHT22;63999;43.882;-0.310;2023-06-22T12:52:17;22.20;91.90
57566;DHT22;63999;43.882;-0.310;2023-06-22T12:54:43;22.20;92.60
57566;DHT22;63999;43.882;-0.310;2023-06-22T12:57:09;22.30;92.50
57566;DHT22;63999;43.882;-0.310;2023-06-22T12:59:34;22.30;91.90
57566;DHT22;63999;43.882;-0.310;2023-06-22T13:02:00;22.30;91.70
57566;DHT22;63999;43.882;-0.310;2023-06-22T13:04:26;22.30;92.90
57566;DHT22;63999;43.882;-0.310;2023-06-22T13:06:51;22.30;92.60
57566;DHT22;63999;43.882;-0.310;2023-06-22T13:09:19;22.30;91.70
57566;DHT22;63999;43.882;-0.310;2023-06-22T13:11:45;22.30;91.70
57566;DHT22;63999;43.882;-0.310;2023-06-22T13:14:10;22.30;91.80
57566;DHT22;63999;43.882;-0.310;2023-06-22T13:16:36;22.30;91.50
57566;DHT22;63999;43.882;-0.310;2023-06-22T13:19:02;22.20;91.60
57566;DHT22;63999;43.882;-0.310;2023-06-22T13:21:28;22.20;91.70
57566;DHT22;63999;43.882;-0.310;2023-06-22T13:23:54;22.20;91.80
57566;DHT22;63999;43.882;-0.310;2023-06-22T13:26:20;22.20;92.30
57566;DHT22;63999;43.882;-0.310;2023-06-22T13:28:46;22.30;92.10
57566;DHT22;63999;43.882;-0.310;2023-06-22T13:31:12;22.30;92.70
57566;DHT22;63999;43.882;-0.310;2023-06-22T13:33:38;22.40;92.20
57566;DHT22;63999;43.882;-0.310;2023-06-22T13:36:06;22.40;92.30
57566;DHT22;63999;43.882;-0.310;2023-06-22T13:43:32;22.70;91.60
57566;DHT22;63999;43.882;-0.310;2023-06-22T13:45:58;22.50;91.60
57566;DHT22;63999;43.882;-0.310;2023-06-22T13:48:24;22.50;91.70
57566;DHT22;63999;43.882;-0.310;2023-06-22T13:50:51;22.50;91.90
57566;DHT22;63999;43.882;-0.310;2023-06-22T13:53:17;22.50;91.50
57566;DHT22;63999;43.882;-0.310;2023-06-22T13:55:43;22.50;91.50
57566;DHT22;63999;43.882;-0.310;2023-06-22T13:58:09;22.50;91.70
57566;DHT22;63999;43.882;-0.310;2023-06-22T14:00:34;22.50;91.80
57566;DHT22;63999;43.882;-0.310;2023-06-22T14:03:00;22.50;92.10
57566;DHT22;63999;43.882;-0.310;2023-06-22T14:05:26;22.50;93.20
57566;DHT22;63999;43.882;-0.310;2023-06-22T14:07:51;22.50;92.40
57566;DHT22;63999;43.882;-0.310;2023-06-22T14:10:17;22.60;92.20
57566;DHT22;63999;43.882;-0.310;2023-06-22T14:12:43;22.60;92.40
57566;DHT22;63999;43.882;-0.310;2023-06-22T14:15:10;22.60;91.30
57566;DHT22;63999;43.882;-0.310;2023-06-22T14:17:36;22.60;91.10
57566;DHT22;63999;43.882;-0.310;2023-06-22T14:20:02;22.60;91.30
57566;DHT22;63999;43.882;-0.310;2023-06-22T14:22:28;22.50;92.20
57566;DHT22;63999;43.882;-0.310;2023-06-22T14:24:55;22.60;91.50
57566;DHT22;63999;43.882;-0.310;2023-06-22T14:27:23;22.50;91.50
57566;DHT22;63999;43.882;-0.310;2023-06-22T14:29:49;22.50;91.60
57566;DHT22;63999;43.882;-0.310;2023-06-22T14:32:14;22.50;91.50
57566;DHT22;63999;43.882;-0.310;2023-06-22T14:34:40;22.50;92.70
57566;DHT22;63999;43.882;-0.310;2023-06-22T14:37:10;22.60;94.20
57566;DHT22;63999;43.882;-0.310;2023-06-22T14:39:36;22.70;93.30
57566;DHT22;63999;43.882;-0.310;2023-06-22T14:42:02;22.70;93.20
57566;DHT22;63999;43.882;-0.310;2023-06-22T14:44:29;22.70;92.20
57566;DHT22;63999;43.882;-0.310;2023-06-22T14:46:56;22.70;93.00
57566;DHT22;63999;43.882;-0.310;2023-06-22T14:49:21;22.70;91.90
57566;DHT22;63999;43.882;-0.310;2023-06-22T14:51:47;22.70;92.20
57566;DHT22;63999;43.882;-0.310;2023-06-22T14:54:13;22.70;93.70
57566;DHT22;63999;43.882;-0.310;2023-06-22T14:56:39;22.80;92.50
57566;DHT22;63999;43.882;-0.310;2023-06-22T14:59:05;22.70;93.20
57566;DHT22;63999;43.882;-0.310;2023-06-22T15:01:30;22.70;92.20
57566;DHT22;63999;43.882;-0.310;2023-06-22T15:03:56;22.70;91.70
57566;DHT22;63999;43.882;-0.310;2023-06-22T15:06:22;22.70;92.00
57566;DHT22;63999;43.882;-0.310;2023-06-22T15:08:48;22.70;92.00
57566;DHT22;63999;43.882;-0.310;2023-06-22T15:11:14;22.70;91.60
57566;DHT22;63999;43.882;-0.310;2023-06-22T15:13:40;22.70;91.60
57566;DHT22;63999;43.882;-0.310;2023-06-22T15:16:07;22.70;93.40
57566;DHT22;63999;43.882;-0.310;2023-06-22T15:18:33;22.70;92.10
57566;DHT22;63999;43.882;-0.310;2023-06-22T15:21:01;22.70;92.90
57566;DHT22;63999;43.882;-0.310;2023-06-22T15:23:27;22.60;91.70